createdAt,value
2022-12-31T00:00:40.240Z,3.92
2022-12-31T00:03:10.138Z,3.33
2022-12-31T00:05:38.424Z,3.45
2022-12-31T00:08:06.356Z,3.70
2022-12-31T00:10:41.428Z,2.97
2022-12-31T00:13:11.141Z,5.10
2022-12-31T00:15:43.124Z,5.28
2022-12-31T00:18:11.676Z,2.58
2022-12-31T00:20:41.809Z,1.70
2022-12-31T00:23:11.006Z,2.03
2022-12-31T00:25:39.174Z,2.67
2022-12-31T00:28:07.105Z,3.35
2022-12-31T00:30:35.121Z,3.80
2022-12-31T00:33:03.179Z,1.98
2022-12-31T00:35:31.018Z,1.75
2022-12-31T00:37:58.873Z,2.40
2022-12-31T00:40:28.375Z,2.60
2022-12-31T00:42:56.177Z,2.03
2022-12-31T00:45:24.075Z,2.97
2022-12-31T00:47:52.077Z,2.45
2022-12-31T00:50:20.038Z,2.83
2022-12-31T00:52:47.920Z,3.00
2022-12-31T00:55:15.873Z,3.55
2022-12-31T00:57:43.837Z,2.92
2022-12-31T01:00:12.386Z,3.55
2022-12-31T01:02:40.410Z,5.88
2022-12-31T01:05:08.776Z,3.92
2022-12-31T01:07:38.516Z,4.18
2022-12-31T01:10:07.001Z,4.05
2022-12-31T01:12:34.859Z,5.35
2022-12-31T01:15:02.724Z,4.47
2022-12-31T01:17:31.585Z,2.95
2022-12-31T01:19:59.438Z,3.08
2022-12-31T01:22:27.348Z,2.60
2022-12-31T01:24:55.164Z,4.00
2022-12-31T01:27:23.080Z,1.75
2022-12-31T01:29:51.032Z,3.63
2022-12-31T01:32:18.975Z,4.28
2022-12-31T01:34:48.322Z,2.50
2022-12-31T01:37:16.261Z,3.58
2022-12-31T01:39:44.135Z,4.90
2022-12-31T01:42:12.832Z,3.08
2022-12-31T01:44:40.749Z,3.03
2022-12-31T01:47:17.453Z,3.58
2022-12-31T01:49:58.432Z,3.65
2022-12-31T01:52:31.832Z,3.22
2022-12-31T01:55:04.036Z,2.03
2022-12-31T01:57:32.588Z,1.75
2022-12-31T02:00:01.826Z,2.28
2022-12-31T02:02:32.772Z,3.13
2022-12-31T02:05:05.533Z,4.47
2022-12-31T02:07:33.617Z,2.17
2022-12-31T02:10:01.711Z,2.92
2022-12-31T02:12:29.580Z,2.90
2022-12-31T02:14:57.688Z,6.53
2022-12-31T02:17:46.454Z,4.25
2022-12-31T02:20:43.714Z,3.40
2022-12-31T02:23:35.732Z,5.30
2022-12-31T02:26:37.084Z,5.05
2022-12-31T02:29:39.689Z,4.10
2022-12-31T02:32:24.851Z,4.75
2022-12-31T02:37:27.256Z,6.78
2022-12-31T02:39:55.491Z,6.22
2022-12-31T02:42:23.364Z,5.15
2022-12-31T02:44:51.354Z,5.45
2022-12-31T02:47:51.227Z,5.10
2022-12-31T02:50:55.640Z,10.93
2022-12-31T02:53:35.756Z,7.85
2022-12-31T02:56:38.081Z,6.43
2022-12-31T02:59:42.876Z,5.07
2022-12-31T03:02:16.006Z,6.63
2022-12-31T03:04:51.930Z,5.25
2022-12-31T03:07:26.295Z,6.88
2022-12-31T03:09:55.144Z,5.18
2022-12-31T03:12:47.183Z,7.78
2022-12-31T03:15:23.165Z,7.60
2022-12-31T03:17:52.434Z,5.53
2022-12-31T03:20:40.290Z,7.00
2022-12-31T03:23:10.532Z,6.32
2022-12-31T03:25:41.433Z,4.82
2022-12-31T03:28:11.905Z,5.80
2022-12-31T03:30:42.665Z,5.55
2022-12-31T03:33:11.291Z,5.05
2022-12-31T03:35:40.521Z,6.07
2022-12-31T03:38:08.729Z,5.20
2022-12-31T03:40:45.167Z,4.40
2022-12-31T03:43:13.052Z,5.60
2022-12-31T03:45:41.039Z,4.65
2022-12-31T03:48:10.882Z,3.35
2022-12-31T03:50:38.920Z,3.08
2022-12-31T03:53:06.881Z,3.92
2022-12-31T03:55:34.839Z,1.85
2022-12-31T03:58:02.885Z,3.58
2022-12-31T04:00:30.881Z,6.63
2022-12-31T04:02:58.795Z,2.88
2022-12-31T04:05:26.795Z,2.85
2022-12-31T04:07:55.722Z,4.25
2022-12-31T04:10:23.621Z,3.55
2022-12-31T04:12:51.599Z,3.90
2022-12-31T04:15:20.951Z,2.25
2022-12-31T04:17:49.122Z,6.30
2022-12-31T04:20:17.483Z,2.38
2022-12-31T04:22:45.453Z,2.13
2022-12-31T04:25:13.438Z,2.28
2022-12-31T04:27:43.530Z,2.42
2022-12-31T04:30:13.056Z,2.42
2022-12-31T04:32:41.548Z,2.45
2022-12-31T04:35:10.775Z,5.00
2022-12-31T04:37:39.237Z,2.15
2022-12-31T04:40:08.779Z,1.88
2022-12-31T04:42:36.925Z,2.33
2022-12-31T04:45:05.895Z,3.35
2022-12-31T04:47:34.597Z,1.55
2022-12-31T04:50:02.627Z,1.50
2022-12-31T04:52:30.523Z,1.95
2022-12-31T04:54:58.443Z,1.63
2022-12-31T04:57:26.242Z,2.60
2022-12-31T04:59:54.107Z,1.25
2022-12-31T05:02:22.219Z,1.65
2022-12-31T05:04:50.367Z,1.45
2022-12-31T05:07:18.937Z,1.30
2022-12-31T05:09:46.818Z,1.30
2022-12-31T05:12:14.692Z,2.63
2022-12-31T05:14:42.556Z,2.17
2022-12-31T05:17:10.491Z,1.58
2022-12-31T05:19:38.362Z,2.00
2022-12-31T05:22:24.772Z,1.45
2022-12-31T05:24:52.666Z,1.40
2022-12-31T05:27:20.976Z,1.38
2022-12-31T05:29:49.069Z,1.40
2022-12-31T05:32:17.157Z,1.65
2022-12-31T05:34:45.259Z,2.58
2022-12-31T05:37:13.148Z,1.92
2022-12-31T05:39:41.075Z,2.05
2022-12-31T05:42:08.975Z,4.07
2022-12-31T05:44:36.800Z,1.65
2022-12-31T05:47:04.686Z,1.85
2022-12-31T05:49:32.674Z,1.95
2022-12-31T05:52:00.603Z,1.50
2022-12-31T05:54:28.465Z,1.45
2022-12-31T05:56:56.437Z,1.33
2022-12-31T05:59:24.408Z,1.13
2022-12-31T06:01:52.365Z,2.47
2022-12-31T06:04:20.338Z,0.90
2022-12-31T06:06:48.469Z,1.30
2022-12-31T06:09:17.662Z,1.30
2022-12-31T06:11:46.092Z,1.05
2022-12-31T06:14:14.276Z,0.70
2022-12-31T06:16:42.737Z,0.90
2022-12-31T06:19:10.735Z,1.48
2022-12-31T06:21:38.670Z,0.70
2022-12-31T06:24:06.767Z,0.80
2022-12-31T06:26:34.841Z,0.98
2022-12-31T06:29:02.882Z,0.95
2022-12-31T06:31:30.841Z,1.05
2022-12-31T06:33:59.156Z,0.90
2022-12-31T06:36:27.140Z,0.80
2022-12-31T06:38:55.584Z,1.02
2022-12-31T06:41:23.450Z,1.10
2022-12-31T06:43:51.520Z,1.02
2022-12-31T06:46:19.639Z,1.10
2022-12-31T06:48:47.485Z,1.33
2022-12-31T06:51:18.650Z,1.50
2022-12-31T06:53:48.457Z,1.58
2022-12-31T06:56:19.347Z,2.05
2022-12-31T06:58:48.555Z,2.45
2022-12-31T07:01:43.400Z,2.50
2022-12-31T07:04:40.111Z,2.92
2022-12-31T07:09:53.531Z,3.17
2022-12-31T07:12:31.254Z,2.85
2022-12-31T07:15:19.822Z,3.33
2022-12-31T07:18:10.997Z,3.13
2022-12-31T07:20:39.190Z,2.28
2022-12-31T07:23:09.215Z,2.55
2022-12-31T07:25:40.983Z,2.10
2022-12-31T07:28:32.065Z,1.88
2022-12-31T07:31:22.811Z,2.90
2022-12-31T07:33:58.411Z,2.55
2022-12-31T07:36:47.270Z,1.40
2022-12-31T07:39:20.734Z,1.92
2022-12-31T07:42:29.934Z,2.05
2022-12-31T07:45:18.469Z,2.17
2022-12-31T07:47:47.251Z,2.53
2022-12-31T07:50:17.183Z,2.45
2022-12-31T07:52:45.878Z,3.25
2022-12-31T07:55:13.927Z,2.42
2022-12-31T07:58:22.445Z,2.78
2022-12-31T08:00:51.714Z,2.60
2022-12-31T08:03:56.265Z,3.45
2022-12-31T08:06:53.720Z,2.58
2022-12-31T08:09:24.763Z,2.83
2022-12-31T08:11:56.754Z,2.85
2022-12-31T08:14:25.636Z,2.70
2022-12-31T08:16:54.403Z,3.08
2022-12-31T08:19:30.619Z,2.85
2022-12-31T08:22:04.376Z,2.13
2022-12-31T08:24:41.155Z,2.97
2022-12-31T08:27:31.777Z,2.65
2022-12-31T08:30:18.948Z,2.67
2022-12-31T08:33:02.728Z,2.97
2022-12-31T08:36:06.370Z,3.28
2022-12-31T08:39:10.632Z,2.35
2022-12-31T08:41:49.454Z,1.98
2022-12-31T08:44:40.567Z,4.25
2022-12-31T08:47:22.480Z,2.03
2022-12-31T08:49:50.546Z,1.98
2022-12-31T08:52:25.995Z,1.23
2022-12-31T08:54:54.397Z,4.03
2022-12-31T08:57:34.861Z,1.30
2022-12-31T09:00:13.666Z,2.58
2022-12-31T09:03:00.707Z,3.78
2022-12-31T09:05:47.458Z,2.58
2022-12-31T09:08:40.183Z,3.05
2022-12-31T09:11:29.106Z,3.50
2022-12-31T09:14:02.714Z,5.22
2022-12-31T09:16:49.317Z,3.08
2022-12-31T09:19:17.315Z,1.10
2022-12-31T09:21:45.593Z,1.08
2022-12-31T09:24:15.428Z,1.30
2022-12-31T09:27:10.189Z,1.42
2022-12-31T09:30:03.828Z,1.10
2022-12-31T09:32:46.349Z,1.20
2022-12-31T09:35:30.657Z,2.08
2022-12-31T09:38:11.108Z,1.05
2022-12-31T09:41:16.315Z,3.42
2022-12-31T09:44:12.081Z,2.17
2022-12-31T09:47:07.515Z,2.35
2022-12-31T09:49:50.290Z,3.28
2022-12-31T09:52:44.335Z,1.50
2022-12-31T09:55:28.337Z,4.65
2022-12-31T09:58:34.381Z,4.40
2022-12-31T10:01:23.983Z,3.97
2022-12-31T10:04:06.984Z,2.90
2022-12-31T10:06:47.640Z,2.17
2022-12-31T10:09:39.495Z,3.92
2022-12-31T10:12:20.382Z,2.47
2022-12-31T10:15:01.124Z,4.97
2022-12-31T10:17:45.940Z,5.05
2022-12-31T10:20:44.895Z,2.15
2022-12-31T10:23:25.227Z,3.88
2022-12-31T10:26:12.851Z,2.30
2022-12-31T10:28:54.890Z,3.53
2022-12-31T10:31:39.310Z,2.40
2022-12-31T10:34:17.702Z,4.35
2022-12-31T10:36:57.650Z,5.05
2022-12-31T10:39:42.495Z,4.95
2022-12-31T10:42:22.658Z,4.60
2022-12-31T10:45:09.183Z,2.17
2022-12-31T10:48:18.081Z,3.55
2022-12-31T10:51:07.994Z,3.75
2022-12-31T10:53:41.554Z,2.75
2022-12-31T10:56:34.938Z,4.18
2022-12-31T10:59:06.005Z,5.05
2022-12-31T11:01:59.426Z,3.95
2022-12-31T11:04:39.567Z,4.47
2022-12-31T11:07:41.431Z,4.53
2022-12-31T11:10:37.902Z,3.42
2022-12-31T11:13:14.741Z,3.97
2022-12-31T11:16:01.501Z,3.08
2022-12-31T11:18:41.928Z,4.85
2022-12-31T11:21:22.813Z,3.35
2022-12-31T11:24:18.397Z,4.38
2022-12-31T11:27:00.876Z,4.63
2022-12-31T11:29:40.545Z,3.20
2022-12-31T11:32:45.950Z,3.95
2022-12-31T11:35:14.912Z,4.32
2022-12-31T11:37:47.693Z,12.15
2022-12-31T11:40:32.644Z,13.85
2022-12-31T11:43:00.724Z,13.45
2022-12-31T11:45:53.914Z,5.60
2022-12-31T11:48:41.518Z,6.88
2022-12-31T11:51:50.146Z,4.75
2022-12-31T11:54:49.324Z,5.22
2022-12-31T11:57:30.039Z,5.93
2022-12-31T12:00:07.043Z,5.35
2022-12-31T12:02:46.711Z,5.18
2022-12-31T12:07:44.860Z,5.80
2022-12-31T12:10:29.156Z,5.13
2022-12-31T12:13:09.826Z,7.03
2022-12-31T12:15:38.308Z,5.65
2022-12-31T12:18:16.190Z,5.30
2022-12-31T12:20:46.435Z,5.03
2022-12-31T12:23:26.072Z,4.45
2022-12-31T12:25:54.066Z,6.30
2022-12-31T12:28:29.308Z,7.38
2022-12-31T12:31:01.598Z,3.38
2022-12-31T12:33:40.368Z,7.88
2022-12-31T12:36:13.980Z,7.65
2022-12-31T12:38:42.867Z,6.83
2022-12-31T12:41:19.385Z,9.13
2022-12-31T12:43:47.416Z,7.05
2022-12-31T12:46:33.587Z,6.03
2022-12-31T12:49:03.272Z,5.65
2022-12-31T12:51:54.253Z,2.92
2022-12-31T12:54:41.567Z,6.85
2022-12-31T12:57:18.226Z,4.38
2022-12-31T13:00:01.900Z,6.60
2022-12-31T13:03:08.014Z,4.10
2022-12-31T13:05:54.371Z,4.65
2022-12-31T13:08:49.495Z,8.85
2022-12-31T13:11:52.966Z,6.05
2022-12-31T13:14:28.694Z,6.40
2022-12-31T13:17:34.477Z,6.22
2022-12-31T13:20:40.954Z,6.30
2022-12-31T13:23:39.482Z,4.05
2022-12-31T13:26:23.526Z,7.65
2022-12-31T13:28:54.786Z,11.82
2022-12-31T13:31:37.821Z,5.28
2022-12-31T13:34:13.483Z,7.32
2022-12-31T13:36:43.164Z,6.53
2022-12-31T13:39:29.914Z,5.47
2022-12-31T13:42:07.449Z,5.22
2022-12-31T13:44:41.875Z,9.45
2022-12-31T13:47:17.116Z,5.72
2022-12-31T13:50:02.642Z,3.88
2022-12-31T13:52:46.674Z,5.20
2022-12-31T13:55:24.199Z,7.97
2022-12-31T13:58:00.167Z,6.72
2022-12-31T14:00:37.211Z,5.60
2022-12-31T14:03:28.595Z,6.13
2022-12-31T14:05:59.191Z,5.65
2022-12-31T14:08:28.426Z,7.15
2022-12-31T14:11:38.861Z,6.65
2022-12-31T14:14:34.801Z,4.32
2022-12-31T14:17:16.075Z,6.55
2022-12-31T14:20:06.758Z,5.38
2022-12-31T14:22:48.807Z,3.85
2022-12-31T14:25:35.752Z,6.50
2022-12-31T14:28:07.166Z,4.75
2022-12-31T14:30:41.406Z,8.48
2022-12-31T14:33:26.371Z,7.60
2022-12-31T14:36:23.568Z,7.18
2022-12-31T14:39:13.689Z,6.50
2022-12-31T14:41:58.305Z,7.50
2022-12-31T14:44:34.821Z,5.53
2022-12-31T14:47:02.767Z,5.80
2022-12-31T14:49:56.534Z,5.00
2022-12-31T14:52:31.236Z,4.80
2022-12-31T14:58:17.196Z,5.65
2022-12-31T15:00:38.847Z,8.13
2022-12-31T15:03:15.679Z,8.35
2022-12-31T15:05:58.635Z,4.95
2022-12-31T15:08:32.434Z,7.95
2022-12-31T15:11:09.515Z,6.87
2022-12-31T15:13:50.732Z,7.05
2022-12-31T15:16:49.661Z,7.60
2022-12-31T15:19:20.748Z,9.30
2022-12-31T15:22:25.971Z,6.35
2022-12-31T15:24:54.055Z,5.50
2022-12-31T15:27:46.313Z,6.47
2022-12-31T15:30:45.355Z,11.20
2022-12-31T15:33:24.111Z,11.25
2022-12-31T15:35:54.747Z,9.10
2022-12-31T15:38:37.740Z,9.15
2022-12-31T15:41:25.712Z,12.10
2022-12-31T15:44:25.790Z,12.30
2022-12-31T15:47:26.743Z,8.82
2022-12-31T15:49:55.567Z,10.73
2022-12-31T15:52:29.360Z,9.73
2022-12-31T15:54:58.518Z,17.97
2022-12-31T15:57:31.769Z,11.60
2022-12-31T16:00:02.046Z,25.13
2022-12-31T16:02:33.278Z,12.05
2022-12-31T16:05:01.561Z,12.80
2022-12-31T16:07:31.826Z,10.95
2022-12-31T16:10:03.187Z,13.43
2022-12-31T16:12:40.809Z,11.10
2022-12-31T16:15:25.722Z,10.60
2022-12-31T16:18:02.783Z,16.27
2022-12-31T16:20:33.018Z,15.20
2022-12-31T16:23:03.627Z,22.35
2022-12-31T16:25:33.682Z,17.63
2022-12-31T16:28:03.863Z,12.02
2022-12-31T16:30:36.036Z,16.58
2022-12-31T16:33:11.726Z,16.90
2022-12-31T16:35:39.681Z,13.93
2022-12-31T16:38:18.836Z,22.38
2022-12-31T16:41:02.391Z,8.93
2022-12-31T16:43:41.613Z,11.32
2022-12-31T16:46:30.716Z,13.77
2022-12-31T16:49:21.514Z,14.95
2022-12-31T16:51:50.392Z,15.77
2022-12-31T16:54:37.695Z,21.77
2022-12-31T16:57:26.176Z,11.23
2022-12-31T17:00:23.199Z,11.20
2022-12-31T17:03:25.619Z,8.05
2022-12-31T17:06:09.742Z,10.32
2022-12-31T17:09:02.609Z,9.63
2022-12-31T17:11:45.291Z,12.60
2022-12-31T17:14:19.606Z,10.90
2022-12-31T17:17:01.452Z,12.15
2022-12-31T17:19:48.530Z,9.95
2022-12-31T17:22:46.280Z,9.25
2022-12-31T17:25:32.446Z,11.32
2022-12-31T17:28:05.773Z,13.32
2022-12-31T17:30:35.383Z,15.68
2022-12-31T17:33:08.264Z,11.48
2022-12-31T17:35:42.612Z,14.75
2022-12-31T17:38:37.170Z,9.95
2022-12-31T17:41:09.356Z,12.17
2022-12-31T17:43:40.791Z,12.10
2022-12-31T17:46:15.482Z,10.35
2022-12-31T17:48:49.660Z,8.95
2022-12-31T17:51:17.911Z,11.75
2022-12-31T17:53:53.033Z,9.48
2022-12-31T17:56:21.926Z,9.32
2022-12-31T17:58:53.600Z,13.25
2022-12-31T18:01:24.721Z,15.77
2022-12-31T18:03:53.109Z,17.95
2022-12-31T18:06:22.808Z,9.85
2022-12-31T18:08:51.336Z,9.50
2022-12-31T18:11:22.832Z,10.65
2022-12-31T18:13:52.977Z,10.52
2022-12-31T18:16:21.469Z,10.50
2022-12-31T18:18:51.363Z,10.35
2022-12-31T18:21:36.029Z,11.07
2022-12-31T18:24:06.645Z,8.02
2022-12-31T18:26:39.152Z,12.27
2022-12-31T18:29:17.074Z,11.77
2022-12-31T18:31:49.919Z,12.43
2022-12-31T18:34:19.023Z,8.35
2022-12-31T18:36:47.543Z,13.15
2022-12-31T18:39:15.604Z,12.13
2022-12-31T18:41:46.541Z,11.60
2022-12-31T18:44:18.568Z,11.48
2022-12-31T18:46:46.497Z,13.32
2022-12-31T18:49:14.655Z,8.98
2022-12-31T18:51:42.737Z,11.65
2022-12-31T18:54:12.332Z,10.18
2022-12-31T18:56:44.959Z,12.85
2022-12-31T18:59:15.605Z,13.52
2022-12-31T19:01:43.812Z,14.82
2022-12-31T19:04:27.121Z,10.48
2022-12-31T19:06:56.811Z,9.45
2022-12-31T19:09:45.068Z,16.13
2022-12-31T19:12:14.767Z,12.18
2022-12-31T19:14:42.768Z,13.27
2022-12-31T19:19:37.405Z,10.93
2022-12-31T19:22:05.361Z,9.88
2022-12-31T19:24:34.436Z,10.32
2022-12-31T19:27:02.477Z,14.70
2022-12-31T19:29:30.481Z,15.00
2022-12-31T19:32:01.169Z,16.13
2022-12-31T19:34:29.179Z,12.98
2022-12-31T19:36:57.059Z,16.38
2022-12-31T19:39:24.889Z,14.65
2022-12-31T19:41:58.880Z,9.02
2022-12-31T19:46:55.448Z,9.05
2022-12-31T19:49:23.449Z,13.70
2022-12-31T19:51:51.350Z,17.70
2022-12-31T19:54:19.300Z,13.00
2022-12-31T19:56:47.201Z,10.48
2022-12-31T19:59:15.433Z,10.90
2022-12-31T20:01:43.479Z,12.18
2022-12-31T20:04:11.604Z,9.18
2022-12-31T20:06:39.467Z,12.32
2022-12-31T20:09:07.335Z,9.02
2022-12-31T20:11:37.759Z,14.68
2022-12-31T20:14:05.629Z,8.27
2022-12-31T20:16:34.178Z,8.63
2022-12-31T20:19:02.221Z,10.77
2022-12-31T20:21:30.530Z,11.90
2022-12-31T20:23:58.471Z,9.40
2022-12-31T20:26:26.438Z,10.52
2022-12-31T20:28:54.592Z,13.30
2022-12-31T20:31:25.302Z,13.35
2022-12-31T20:33:54.339Z,9.00
2022-12-31T20:36:22.828Z,12.30
2022-12-31T20:38:51.481Z,17.38
2022-12-31T20:41:21.845Z,13.68
2022-12-31T20:43:50.037Z,16.20
2022-12-31T20:46:25.540Z,13.48
2022-12-31T20:48:56.114Z,10.23
2022-12-31T20:51:24.958Z,16.17
2022-12-31T20:53:56.298Z,16.15
2022-12-31T20:56:25.677Z,15.10
2022-12-31T20:58:53.756Z,12.68
2022-12-31T21:01:22.595Z,13.80
2022-12-31T21:04:04.947Z,12.23
2022-12-31T21:06:34.904Z,12.57
2022-12-31T21:09:06.168Z,11.13
2022-12-31T21:11:53.733Z,9.00
2022-12-31T21:14:22.375Z,11.82
2022-12-31T21:16:50.398Z,12.93
2022-12-31T21:19:18.304Z,14.00
2022-12-31T21:21:48.066Z,15.98
2022-12-31T21:24:21.772Z,15.98
2022-12-31T21:26:52.146Z,19.40
2022-12-31T21:29:20.225Z,13.93
2022-12-31T21:31:48.346Z,12.65
2022-12-31T21:34:16.291Z,18.30
2022-12-31T21:36:44.343Z,18.73
2022-12-31T21:39:12.175Z,19.02
2022-12-31T21:41:52.608Z,10.27
2022-12-31T21:44:28.348Z,10.73
2022-12-31T21:47:38.584Z,16.95
2022-12-31T21:50:08.717Z,17.23
2022-12-31T21:52:36.669Z,10.20
2022-12-31T21:55:24.874Z,14.73
2022-12-31T21:58:25.402Z,13.50
2022-12-31T22:00:59.951Z,10.50
2022-12-31T22:03:28.463Z,14.15
2022-12-31T22:06:00.837Z,14.70
2022-12-31T22:08:30.671Z,17.75
2022-12-31T22:10:58.631Z,15.85
2022-12-31T22:13:26.835Z,18.33
2022-12-31T22:16:03.886Z,21.73
2022-12-31T22:18:35.114Z,11.65
2022-12-31T22:21:15.523Z,17.05
2022-12-31T22:23:47.478Z,11.23
2022-12-31T22:26:16.794Z,10.13
2022-12-31T22:28:46.034Z,11.15
2022-12-31T22:31:19.532Z,13.15
2022-12-31T22:33:48.745Z,16.92
2022-12-31T22:36:19.193Z,10.50
2022-12-31T22:38:48.124Z,12.45
2022-12-31T22:41:18.917Z,13.38
2022-12-31T22:43:53.439Z,8.38
2022-12-31T22:46:26.712Z,23.67
2022-12-31T22:48:58.702Z,13.80
2022-12-31T22:51:54.681Z,16.60
2022-12-31T22:54:15.792Z,11.75
2022-12-31T22:56:43.647Z,17.48
2022-12-31T22:59:11.612Z,14.88
2022-12-31T23:01:39.653Z,17.13
2022-12-31T23:04:07.806Z,99.00
2022-12-31T23:06:43.536Z,71.30
2022-12-31T23:09:34.440Z,86.75
2022-12-31T23:12:04.393Z,136.77
2022-12-31T23:14:51.165Z,98.65
2022-12-31T23:17:42.412Z,94.85
2022-12-31T23:20:36.299Z,90.80
2022-12-31T23:23:11.669Z,58.47
2022-12-31T23:25:48.761Z,69.75
2022-12-31T23:28:22.962Z,69.30
2022-12-31T23:30:51.727Z,48.65
2022-12-31T23:33:22.406Z,51.30
2022-12-31T23:35:51.001Z,45.17
2022-12-31T23:38:19.008Z,42.42
2022-12-31T23:40:47.138Z,35.25
2022-12-31T23:43:22.308Z,25.77
2022-12-31T23:45:51.711Z,28.77
2022-12-31T23:48:20.362Z,19.67
2022-12-31T23:50:53.875Z,27.67
2022-12-31T23:53:23.974Z,29.80
2022-12-31T23:55:55.125Z,19.08
2022-12-31T23:58:23.245Z,16.60
